Mesa, Colorado
Current Conditions -  °F | °C
As of 8:53 AM on Saturday 22 Nov 2014 (Local Time) from KGJT Reporting Station
Clear Clear  
Wind Chill: 25°   Ceiling: Unl
Heat Index: 33°   Visibility: 10mi
Dew Point: 19°   Wind: 9mph
Humidity: 56%   Direction: 120°ESE
Pressure: 30.03"   Gusts: NA
Location:  39.17°N, 108.14°W
Report Text: KGJT 221553Z 12008KT 10SM CLR 01/M07 A3003 RMK AO2 PRESFR SLP184 T00061072
Loading
Personal Weather Stations






























Interactive Weather Map New forecast layout! Learn more

10-Day Weather Forecast

Advertisements
Track Severe Weather on mobile